createdAt,value
2023-01-22T00:03:30.835Z,102460.14
2023-01-22T00:05:57.987Z,102462.21
2023-01-22T00:08:25.360Z,102458.95
2023-01-22T00:10:53.085Z,102456.38
2023-01-22T00:13:21.051Z,102460.73
2023-01-22T00:15:48.228Z,102465.23
2023-01-22T00:18:15.383Z,102462.78
2023-01-22T00:20:46.795Z,102460.14
2023-01-22T00:23:13.849Z,102463.95
2023-01-22T00:25:40.898Z,102465.31
2023-01-22T00:28:08.149Z,102468.58
2023-01-22T00:30:35.403Z,102470.30
2023-01-22T00:33:02.444Z,102469.08
2023-01-22T00:35:29.504Z,102470.81
2023-01-22T00:37:56.538Z,102473.42
2023-01-22T00:40:23.689Z,102475.16
2023-01-22T00:42:50.843Z,102475.52
2023-01-22T00:45:17.997Z,102479.69
2023-01-22T00:47:45.036Z,102480.20
2023-01-22T00:50:12.091Z,102486.08
2023-01-22T00:52:39.229Z,102485.39
2023-01-22T00:55:07.211Z,102490.58
2023-01-22T00:57:34.878Z,102495.23
2023-01-22T04:14:57.414Z,102586.99
2023-01-22T04:17:26.915Z,102586.91
2023-01-22T04:20:12.602Z,102590.38
2023-01-22T04:23:06.583Z,102590.05
2023-01-22T04:25:35.167Z,102591.86
2023-01-22T04:28:02.621Z,102598.70
2023-01-22T04:30:30.184Z,102603.45
2023-01-22T04:33:08.493Z,102605.08
2023-01-22T04:35:55.715Z,102613.46
2023-01-22T04:38:23.373Z,102615.06
2023-01-22T04:40:52.161Z,102619.07
2023-01-22T04:43:19.719Z,102621.02
2023-01-22T04:45:49.751Z,102620.55
2023-01-22T04:48:18.733Z,102622.86
2023-01-22T04:50:46.907Z,102626.56
2023-01-22T04:53:14.459Z,102627.67
2023-01-22T04:55:42.339Z,102631.55
2023-01-22T04:58:10.609Z,102635.06
2023-01-22T05:00:38.166Z,102638.55
2023-01-22T05:03:05.724Z,102633.55
2023-01-22T05:05:34.200Z,102632.90
2023-01-22T05:08:01.757Z,102635.52
2023-01-22T05:10:30.135Z,102638.34
2023-01-22T05:13:02.404Z,102638.19
2023-01-22T05:15:29.616Z,102639.40
2023-01-22T05:18:02.472Z,102640.78
2023-01-22T05:20:29.894Z,102644.22
2023-01-22T05:22:59.193Z,102646.26
2023-01-22T05:25:27.167Z,102650.73
2023-01-22T05:27:55.949Z,102650.36
2023-01-22T05:30:49.182Z,102657.41
2023-01-22T05:33:29.878Z,102662.08
2023-01-22T05:35:58.152Z,102664.66
2023-01-22T05:38:25.815Z,102665.86
2023-01-22T05:40:53.579Z,102672.89
2023-01-22T05:43:26.051Z,102676.50
2023-01-22T05:46:02.257Z,102682.17
2023-01-22T05:48:49.534Z,102684.06
2023-01-22T05:51:32.433Z,102689.92
2023-01-22T05:54:00.048Z,102698.16
2023-01-22T05:56:31.211Z,102702.27
2023-01-22T05:58:58.101Z,102701.38
2023-01-22T06:01:25.296Z,102705.50
2023-01-22T06:03:52.632Z,102705.13
2023-01-22T06:06:23.548Z,102709.56
2023-01-22T06:08:52.354Z,102713.18
2023-01-22T06:11:20.622Z,102717.99
2023-01-22T06:13:47.773Z,102723.50
2023-01-22T06:16:16.980Z,102724.15
2023-01-22T06:18:54.239Z,102727.70
2023-01-22T06:21:22.241Z,102731.98
2023-01-22T06:23:49.251Z,102735.58
2023-01-22T06:26:16.916Z,102743.68
2023-01-22T06:28:44.165Z,102747.14
2023-01-22T06:31:12.116Z,102749.04
2023-01-22T06:33:40.935Z,102748.36
2023-01-22T06:36:08.695Z,102743.34
2023-01-22T06:38:36.768Z,102746.94
2023-01-22T06:41:04.732Z,102747.19
2023-01-22T06:43:33.215Z,102751.58
2023-01-22T06:46:00.560Z,102752.19
2023-01-22T06:48:50.747Z,102755.75
2023-01-22T06:51:17.775Z,102766.10
2023-01-22T06:53:45.764Z,102766.52
2023-01-22T06:56:12.711Z,102775.36
2023-01-22T06:58:39.963Z,102774.49
2023-01-22T07:01:07.317Z,102784.50
2023-01-22T07:03:34.999Z,102787.70
2023-01-22T07:06:03.456Z,102793.58
2023-01-22T07:08:31.432Z,102796.17
2023-01-22T07:10:58.985Z,102800.16
2023-01-22T07:13:26.563Z,102804.12
2023-01-22T07:15:53.662Z,102803.60
2023-01-22T07:18:23.455Z,102808.45
2023-01-22T07:20:50.755Z,102812.58
2023-01-22T07:23:18.112Z,102813.11
2023-01-22T07:25:46.190Z,102816.60
2023-01-22T07:28:16.916Z,102818.75
2023-01-22T07:30:46.470Z,102819.36
2023-01-22T07:33:14.180Z,102824.41
2023-01-22T07:35:41.126Z,102829.27
2023-01-22T07:38:08.394Z,102834.87
2023-01-22T07:40:35.736Z,102836.11
2023-01-22T07:43:06.563Z,102835.25
2023-01-22T07:45:36.174Z,102839.74
2023-01-22T07:48:07.213Z,102845.96
2023-01-22T07:50:36.350Z,102846.81
2023-01-22T07:53:03.366Z,102850.45
2023-01-22T07:55:32.256Z,102850.95
2023-01-22T07:58:01.340Z,102848.87
2023-01-22T08:00:28.392Z,102848.84
2023-01-22T08:02:58.811Z,102851.24
2023-01-22T08:05:25.969Z,102853.16
2023-01-22T08:07:53.434Z,102855.43
2023-01-22T08:10:21.019Z,102853.36
2023-01-22T08:12:49.766Z,102856.67
2023-01-22T08:15:16.916Z,102861.67
2023-01-22T08:17:43.972Z,102859.82
2023-01-22T08:20:11.728Z,102862.64
2023-01-22T08:22:39.508Z,102859.54
2023-01-22T08:25:07.354Z,102862.35
2023-01-22T08:27:34.811Z,102858.56
2023-01-22T08:30:03.508Z,102866.22
2023-01-22T08:32:31.042Z,102861.95
2023-01-22T08:34:58.297Z,102863.19
2023-01-22T08:37:25.358Z,102865.98
2023-01-22T08:39:52.303Z,102866.70
2023-01-22T08:42:19.451Z,102868.44
2023-01-22T08:44:46.484Z,102866.88
2023-01-22T08:47:13.451Z,102869.48
2023-01-22T08:49:40.593Z,102869.45
2023-01-22T08:52:07.637Z,102871.66
2023-01-22T08:54:35.603Z,102872.30
2023-01-22T08:57:02.767Z,102869.62
2023-01-22T08:59:31.067Z,102873.66
2023-01-22T09:01:59.327Z,102876.17
2023-01-22T09:04:26.968Z,102877.64
2023-01-22T09:06:54.358Z,102881.53
2023-01-22T09:09:21.481Z,102877.31
2023-01-22T09:11:48.547Z,102880.02
2023-01-22T09:14:15.667Z,102877.69
2023-01-22T09:16:42.679Z,102875.14
2023-01-22T09:19:09.872Z,102878.67
2023-01-22T09:21:37.723Z,102881.35
2023-01-22T09:24:05.799Z,102881.32
2023-01-22T09:26:34.207Z,102879.70
2023-01-22T09:29:03.799Z,102879.13
2023-01-22T09:31:34.890Z,102878.73
2023-01-22T09:34:02.097Z,102874.89
2023-01-22T09:36:29.850Z,102876.21
2023-01-22T09:38:56.792Z,102879.31
2023-01-22T09:41:33.865Z,102878.81
2023-01-22T09:44:29.889Z,102880.54
2023-01-22T09:47:02.978Z,102882.60
2023-01-22T09:49:55.890Z,102883.65
2023-01-22T09:52:28.343Z,102885.23
2023-01-22T09:54:55.675Z,102892.31
2023-01-22T09:57:31.321Z,102896.48
2023-01-22T09:59:59.407Z,102902.25
2023-01-22T13:09:24.309Z,102930.53
2023-01-22T13:11:51.562Z,102927.20
2023-01-22T13:14:21.232Z,102925.46
2023-01-22T13:16:56.811Z,102930.94
2023-01-22T13:19:26.623Z,102928.55
2023-01-22T13:21:57.053Z,102929.77
2023-01-22T13:24:24.608Z,102935.76
2023-01-22T13:26:56.772Z,102935.88
2023-01-22T13:29:36.369Z,102939.61
2023-01-22T13:32:14.626Z,102937.83
2023-01-22T13:34:41.572Z,102944.34
2023-01-22T13:37:22.340Z,102947.23
2023-01-22T13:39:53.278Z,102947.92
2023-01-22T13:42:20.428Z,102949.73
2023-01-22T13:44:50.953Z,102951.27
2023-01-22T13:47:33.158Z,102950.88
2023-01-22T13:50:00.656Z,102949.52
2023-01-22T13:52:28.588Z,102943.67
2023-01-22T13:55:00.440Z,102944.55
2023-01-22T13:57:27.492Z,102944.59
2023-01-22T13:59:55.997Z,102947.23
2023-01-22T14:02:32.035Z,102953.71
2023-01-22T14:04:59.277Z,102951.84
2023-01-22T14:07:33.088Z,102950.14
2023-01-22T14:10:18.698Z,102951.16
2023-01-22T14:12:46.222Z,102950.80
2023-01-22T14:15:17.946Z,102948.16
2023-01-22T14:17:44.827Z,102952.23
2023-01-22T14:20:12.186Z,102952.02
2023-01-22T14:22:39.751Z,102951.52
2023-01-22T14:25:08.215Z,102953.44
2023-01-22T14:27:46.756Z,102954.52
2023-01-22T14:30:16.209Z,102951.53
2023-01-22T14:32:43.697Z,102953.69
2023-01-22T14:35:18.726Z,102954.65
2023-01-22T14:37:46.104Z,102954.55
2023-01-22T14:40:14.234Z,102957.47
2023-01-22T14:42:41.812Z,102963.50
2023-01-22T14:45:09.786Z,102962.05
2023-01-22T14:47:37.141Z,102967.10
2023-01-22T14:50:05.924Z,102969.17
2023-01-22T14:52:34.033Z,102973.36
2023-01-22T14:55:01.040Z,102977.00
2023-01-22T14:57:28.089Z,102979.80
2023-01-22T14:59:55.645Z,102980.38
2023-01-22T15:02:23.115Z,102979.23
2023-01-22T15:04:50.372Z,102977.71
2023-01-22T15:07:17.376Z,102977.86
2023-01-22T15:09:44.346Z,102979.80
2023-01-22T15:12:11.397Z,102979.64
2023-01-22T15:14:39.157Z,102979.27
2023-01-22T15:17:06.407Z,102974.36
2023-01-22T15:19:40.887Z,102973.65
2023-01-22T15:22:09.621Z,102974.34
2023-01-22T15:24:39.020Z,102979.89
2023-01-22T15:27:06.882Z,102987.75
2023-01-22T15:29:33.832Z,102992.20
2023-01-22T15:32:03.024Z,102991.20
2023-01-22T15:34:30.993Z,102987.11
2023-01-22T15:36:58.257Z,102989.77
2023-01-22T15:39:29.107Z,102991.92
2023-01-22T15:41:56.946Z,102989.20
2023-01-22T15:44:24.094Z,102990.59
2023-01-22T15:46:51.232Z,102993.13
2023-01-22T15:49:18.404Z,102999.13
2023-01-22T15:51:45.444Z,102999.63
2023-01-22T15:54:14.637Z,103003.59
2023-01-22T15:56:41.890Z,103003.66
2023-01-22T15:59:10.067Z,103006.06
2023-01-22T16:01:37.335Z,103004.36
2023-01-22T19:54:09.982Z,103112.09
2023-01-22T19:56:37.851Z,103105.55
2023-01-22T19:59:07.664Z,103105.71
2023-01-22T20:01:36.380Z,103110.00
2023-01-22T20:04:04.720Z,103113.55
2023-01-22T20:06:31.876Z,103114.52
2023-01-22T20:08:59.329Z,103115.10
2023-01-22T20:11:26.684Z,103113.70
2023-01-22T20:13:53.846Z,103112.50
2023-01-22T20:16:23.621Z,103119.39
2023-01-22T20:18:51.418Z,103117.16
2023-01-22T20:21:19.376Z,103119.59
2023-01-22T20:23:47.136Z,103124.42
2023-01-22T20:26:14.852Z,103126.30
2023-01-22T20:28:41.963Z,103129.89
2023-01-22T20:31:19.498Z,103129.90
2023-01-22T20:33:48.229Z,103126.89
2023-01-22T20:36:16.306Z,103130.70
2023-01-22T20:38:45.391Z,103134.84
2023-01-22T20:41:12.747Z,103138.99
2023-01-22T20:43:40.822Z,103138.70
2023-01-22T20:46:11.765Z,103139.78
2023-01-22T20:48:41.158Z,103140.29
2023-01-22T20:51:15.413Z,103146.30
2023-01-22T20:53:43.764Z,103144.04
2023-01-22T20:56:14.094Z,103145.91
2023-01-22T20:58:41.531Z,103143.27
2023-01-22T21:01:11.130Z,103134.52
2023-01-22T21:03:38.186Z,103142.11
2023-01-22T21:06:07.056Z,103143.08
2023-01-22T21:08:34.527Z,103142.36
2023-01-22T21:11:06.081Z,103144.96
2023-01-22T21:13:33.340Z,103142.02
2023-01-22T21:16:08.106Z,103145.63
2023-01-22T21:18:35.657Z,103149.41
2023-01-22T21:21:04.305Z,103151.02
2023-01-22T21:23:31.462Z,103149.48
2023-01-22T21:26:12.243Z,103145.13
2023-01-22T21:28:39.738Z,103148.32
2023-01-22T21:31:08.589Z,103147.83
2023-01-22T21:33:36.337Z,103150.55
2023-01-22T21:36:04.505Z,103151.51
2023-01-22T21:38:31.878Z,103153.41
2023-01-22T21:41:10.093Z,103155.44
2023-01-22T21:43:55.344Z,103155.83
2023-01-22T21:46:22.491Z,103155.89
2023-01-22T21:48:49.861Z,103150.70
2023-01-22T21:51:17.675Z,103150.48
2023-01-22T21:53:44.763Z,103147.52
2023-01-22T21:56:11.908Z,103150.54
2023-01-22T21:58:41.833Z,103149.45
2023-01-22T22:01:09.007Z,103149.94
2023-01-22T22:03:36.788Z,103152.58
2023-01-22T22:06:04.304Z,103148.98
2023-01-22T22:08:31.853Z,103155.10
2023-01-22T22:10:59.719Z,103151.87
2023-01-22T22:13:26.973Z,103150.95
2023-01-22T22:15:54.329Z,103151.23
2023-01-22T22:18:21.790Z,103155.56
2023-01-22T22:20:48.855Z,103157.25
2023-01-22T22:23:15.771Z,103154.77
2023-01-22T22:25:47.121Z,103153.21
2023-01-22T22:28:14.785Z,103156.68
2023-01-22T22:30:41.800Z,103161.45
2023-01-22T22:33:08.876Z,103161.22
2023-01-22T22:35:36.247Z,103161.02
2023-01-22T22:38:03.479Z,103162.09
2023-01-22T22:40:32.471Z,103162.08
2023-01-22T22:42:59.932Z,103158.38
2023-01-22T22:45:26.976Z,103161.92
2023-01-22T22:47:53.921Z,103157.36
2023-01-22T22:50:21.612Z,103158.25
2023-01-22T22:52:49.149Z,103154.13
2023-01-22T22:55:16.127Z,103157.02
2023-01-22T22:57:43.444Z,103153.15
2023-01-22T23:00:12.748Z,103151.38
2023-01-22T23:02:40.606Z,103154.55
2023-01-22T23:05:08.061Z,103158.00
2023-01-22T23:07:36.336Z,103155.36
2023-01-22T23:10:04.727Z,103152.61
2023-01-22T23:12:31.863Z,103153.52
2023-01-22T23:14:59.015Z,103151.86
2023-01-22T23:17:26.365Z,103151.43
2023-01-22T23:19:53.431Z,103156.71
2023-01-22T23:22:20.772Z,103156.92
2023-01-22T23:24:47.916Z,103160.70
2023-01-22T23:27:15.069Z,103157.89
2023-01-22T23:29:42.317Z,103161.50
2023-01-22T23:32:09.576Z,103158.14
2023-01-22T23:34:37.046Z,103158.56
2023-01-22T23:37:03.869Z,103158.33
2023-01-22T23:39:31.323Z,103158.83
2023-01-22T23:41:58.575Z,103159.45
2023-01-22T23:44:25.621Z,103158.67
2023-01-22T23:46:52.878Z,103152.36
2023-01-22T23:49:19.826Z,103151.16
2023-01-22T23:51:46.967Z,103155.15
2023-01-22T23:54:14.218Z,103161.83
2023-01-22T23:56:41.376Z,103169.98
2023-01-22T23:59:10.150Z,103168.66
